TimeCDT,TemperatureF,Dew PointF,Humidity,Sea Level PressureIn,VisibilityMPH,Wind Direction,Wind SpeedMPH,Gust SpeedMPH,PrecipitationIn,Events,Conditions,WindDirDegrees,DateUTC
12:54 AM,43.0,39.0,86,30.06,10.0,WNW,8.1,-,N/A,,Clear,300,2012-10-10 05:54:00
1:54 AM,41.0,37.0,86,30.08,10.0,WNW,9.2,-,N/A,,Clear,300,2012-10-10 06:54:00
2:54 AM,39.0,35.1,86,30.10,10.0,WNW,5.8,-,N/A,,Clear,290,2012-10-10 07:54:00
3:54 AM,37.0,33.1,86,30.12,10.0,West,4.6,-,N/A,,Clear,270,2012-10-10 08:54:00
4:54 AM,37.0,32.0,82,30.13,10.0,West,4.6,-,N/A,,Clear,270,2012-10-10 09:54:00
5:54 AM,36.0,32.0,86,30.16,10.0,WNW,5.8,-,N/A,,Clear,290,2012-10-10 10:54:00
6:54 AM,35.1,30.9,85,30.18,10.0,West,4.6,-,N/A,,Clear,280,2012-10-10 11:54:00
7:54 AM,36.0,30.9,82,30.21,10.0,West,5.8,-,N/A,,Clear,270,2012-10-10 12:54:00
8:54 AM,41.0,33.1,73,30.24,10.0,NW,9.2,-,N/A,,Clear,310,2012-10-10 13:54:00
9:54 AM,45.0,33.1,63,30.26,10.0,WNW,6.9,-,N/A,,Clear,290,2012-10-10 14:54:00
10:54 AM,48.9,32.0,52,30.26,10.0,WNW,10.4,-,N/A,,Clear,290,2012-10-10 15:54:00
11:54 AM,51.1,32.0,48,30.26,10.0,West,8.1,-,N/A,,Clear,260,2012-10-10 16:54:00
12:54 PM,53.1,30.0,41,30.25,10.0,NW,16.1,-,N/A,,Mostly Cloudy,310,2012-10-10 17:54:00
1:54 PM,54.0,30.0,40,30.22,10.0,West,10.4,-,N/A,,Scattered Clouds,280,2012-10-10 18:54:00
2:54 PM,55.0,28.9,37,30.21,10.0,West,9.2,17.3,N/A,,Clear,260,2012-10-10 19:54:00
3:54 PM,55.9,28.9,36,30.20,10.0,WNW,6.9,17.3,N/A,,Clear,290,2012-10-10 20:54:00
4:54 PM,55.0,28.9,37,30.19,10.0,WNW,9.2,-,N/A,,Clear,290,2012-10-10 21:54:00
5:54 PM,54.0,30.9,41,30.18,10.0,WSW,4.6,-,N/A,,Clear,240,2012-10-10 22:54:00
6:54 PM,51.1,30.0,44,30.19,10.0,SSW,3.5,-,N/A,,Clear,200,2012-10-10 23:54:00
7:54 PM,46.9,30.0,52,30.19,10.0,South,3.5,-,N/A,,Clear,180,2012-10-11 00:54:00
8:54 PM,48.0,30.0,50,30.19,10.0,South,6.9,-,N/A,,Clear,170,2012-10-11 01:54:00
9:54 PM,46.0,30.0,54,30.19,10.0,South,4.6,-,N/A,,Clear,180,2012-10-11 02:54:00
10:54 PM,42.1,30.0,62,30.19,10.0,South,5.8,-,N/A,,Clear,180,2012-10-11 03:54:00
11:54 PM,42.1,30.9,65,30.18,10.0,South,4.6,-,N/A,,Clear,180,2012-10-11 04:54:00